Time;durP1;ratioP1;P1;durP2;ratioP2;P2;SDS_P1;SDS_P2;PMS_P1;PMS_P2;Temp;Humidity;BMP_temperature;BMP_pressure;BME280_temperature;BME280_humidity;BME280_pressure;Samples;Min_cycle;Max_cycle;Signal;HPM_P1;HPM_P2
2021/03/01 00:03:00;;;;;;;21.45;11.57;;;;;;;;;;6289612;28;20074;-75
2021/03/01 00:06:01;;;;;;;18.05;11.00;;;;;;;;;;6290247;28;20044;-76
2021/03/01 00:09:03;;;;;;;23.30;11.73;;;;;;;;;;6291612;28;20082;-75
2021/03/01 00:12:05;;;;;;;18.35;11.65;;;;;;;;;;6287699;28;20127;-75
2021/03/01 00:15:08;;;;;;;17.20;10.95;;;;;;;;;;6278358;28;20041;-77
2021/03/01 00:18:10;;;;;;;22.53;11.63;;;;;;;;;;6292223;28;20056;-75
2021/03/01 00:21:11;;;;;;;17.58;11.10;;;;;;;;;;6291151;28;20040;-74
2021/03/01 00:24:13;;;;;;;19.67;12.02;;;;;;;;;;6291929;28;20131;-77
2021/03/01 00:27:14;;;;;;;23.67;11.30;;;;;;;;;;6291257;28;21102;-78
2021/03/01 00:30:16;;;;;;;19.02;11.23;;;;;;;;;;6292061;28;20128;-78
2021/03/01 00:33:17;;;;;;;23.55;11.82;;;;;;;;;;6292306;28;20534;-78
2021/03/01 00:36:18;;;;;;;17.67;10.80;;;;;;;;;;6294842;28;20040;-79
2021/03/01 00:39:20;;;;;;;24.05;12.10;;;;;;;;;;6297801;28;20093;-77
2021/03/01 00:42:21;;;;;;;22.98;11.50;;;;;;;;;;6296274;28;20083;-76
2021/03/01 00:45:22;;;;;;;19.42;11.15;;;;;;;;;;6297596;28;20143;-78
2021/03/01 00:48:23;;;;;;;18.52;12.48;;;;;;;;;;6302426;28;20550;-75
2021/03/01 00:51:24;;;;;;;20.15;12.15;;;;;;;;;;6298612;28;20124;-76
2021/03/01 00:54:26;;;;;;;19.40;11.95;;;;;;;;;;6296720;28;20052;-74
2021/03/01 00:57:27;;;;;;;20.48;12.43;;;;;;;;;;6303760;28;20052;-74
2021/03/01 01:00:29;;;;;;;19.92;12.35;;;;;;;;;;6302337;28;20075;-76
2021/03/01 01:03:30;;;;;;;24.25;13.38;;;;;;;;;;6295185;28;20178;-74
2021/03/01 01:06:31;;;;;;;22.08;12.82;;;;;;;;;;6296276;28;20167;-74
2021/03/01 01:09:33;;;;;;;19.90;13.13;;;;;;;;;;6299225;28;20127;-74
2021/03/01 01:12:34;;;;;;;22.55;12.82;;;;;;;;;;6297142;28;20053;-76
2021/03/01 01:15:35;;;;;;;24.30;12.82;;;;;;;;;;6298060;28;20068;-76
2021/03/01 01:18:36;;;;;;;22.48;13.43;;;;;;;;;;6294987;28;20489;-78
2021/03/01 01:21:37;;;;;;;21.77;13.38;;;;;;;;;;6290360;28;20131;-75
2021/03/01 01:24:39;;;;;;;22.67;12.80;;;;;;;;;;6293557;28;20098;-75
2021/03/01 01:27:40;;;;;;;23.80;14.57;;;;;;;;;;6292462;28;20123;-74
2021/03/01 01:30:41;;;;;;;21.83;13.65;;;;;;;;;;6293239;28;20054;-74
2021/03/01 01:33:42;;;;;;;26.25;13.82;;;;;;;;;;6299422;28;20094;-78
2021/03/01 01:36:43;;;;;;;21.90;12.63;;;;;;;;;;6288485;28;20445;-77
2021/03/01 01:39:45;;;;;;;23.52;13.23;;;;;;;;;;6291667;28;20071;-77
2021/03/01 01:42:47;;;;;;;22.67;13.10;;;;;;;;;;6288955;28;20119;-77
2021/03/01 01:45:48;;;;;;;23.75;12.60;;;;;;;;;;6294440;28;20045;-76
2021/03/01 01:48:49;;;;;;;20.35;12.38;;;;;;;;;;6293380;28;20139;-77
2021/03/01 01:51:50;;;;;;;20.80;12.45;;;;;;;;;;6295956;28;20048;-77
2021/03/01 01:54:52;;;;;;;23.25;13.48;;;;;;;;;;6295320;28;20084;-77
2021/03/01 01:57:53;;;;;;;23.17;12.80;;;;;;;;;;6284936;28;20124;-76
2021/03/01 02:00:55;;;;;;;20.52;11.88;;;;;;;;;;6296109;28;20503;-76
2021/03/01 02:04:01;;;;;;;17.17;11.63;;;;;;;;;;6298339;28;20122;-76
2021/03/01 02:07:08;;;;;;;21.17;12.65;;;;;;;;;;6303805;28;20056;-76
2021/03/01 02:10:13;;;;;;;19.48;12.20;;;;;;;;;;6297107;28;20127;-76
2021/03/01 02:13:21;;;;;;;21.15;11.95;;;;;;;;;;6298563;28;20036;-76
2021/03/01 02:16:29;;;;;;;20.90;11.98;;;;;;;;;;6295528;28;20054;-76
2021/03/01 02:19:30;;;;;;;23.38;12.70;;;;;;;;;;6295110;28;20171;-77
2021/03/01 02:22:32;;;;;;;20.75;12.88;;;;;;;;;;6298083;28;20049;-77
2021/03/01 02:25:33;;;;;;;24.70;13.07;;;;;;;;;;6294420;28;20197;-77
2021/03/01 02:28:40;;;;;;;21.05;12.90;;;;;;;;;;6291315;28;20053;-77
2021/03/01 02:31:44;;;;;;;20.15;12.25;;;;;;;;;;6293014;28;20148;-76
2021/03/01 02:34:45;;;;;;;20.40;12.30;;;;;;;;;;6300415;28;20608;-76
2021/03/01 02:37:48;;;;;;;20.77;13.27;;;;;;;;;;6301317;28;20051;-81
2021/03/01 02:40:50;;;;;;;23.80;12.80;;;;;;;;;;6295352;28;20053;-79
2021/03/01 02:43:51;;;;;;;21.98;12.57;;;;;;;;;;6299338;28;20047;-76
2021/03/01 02:46:53;;;;;;;23.23;12.75;;;;;;;;;;6297436;28;20135;-77
2021/03/01 02:49:56;;;;;;;22.10;12.80;;;;;;;;;;6298428;28;20076;-80
2021/03/01 02:52:58;;;;;;;22.55;13.05;;;;;;;;;;6283555;28;20127;-76
2021/03/01 02:56:00;;;;;;;19.90;12.48;;;;;;;;;;6294299;28;20136;-76
2021/03/01 02:59:02;;;;;;;22.35;13.20;;;;;;;;;;6296180;28;20178;-76
2021/03/01 03:02:03;;;;;;;22.08;12.60;;;;;;;;;;6294839;28;20178;-76
2021/03/01 03:05:07;;;;;;;20.15;12.57;;;;;;;;;;6302445;28;20036;-75
2021/03/01 03:08:09;;;;;;;21.15;12.38;;;;;;;;;;6295822;28;20669;-75
2021/03/01 03:11:11;;;;;;;21.52;12.45;;;;;;;;;;6296958;28;20040;-75
2021/03/01 03:14:14;;;;;;;23.92;12.52;;;;;;;;;;6295214;28;20122;-82
2021/03/01 03:17:18;;;;;;;18.02;12.02;;;;;;;;;;6293964;28;20054;-78
2021/03/01 03:20:19;;;;;;;23.13;12.77;;;;;;;;;;6296823;28;20060;-75
2021/03/01 03:23:21;;;;;;;19.00;12.30;;;;;;;;;;6293339;28;20559;-75
2021/03/01 03:26:22;;;;;;;21.27;12.82;;;;;;;;;;6296658;28;20135;-77
2021/03/01 03:29:23;;;;;;;20.35;12.27;;;;;;;;;;6296443;28;20459;-76
2021/03/01 03:32:24;;;;;;;21.05;12.20;;;;;;;;;;6289493;28;20036;-80
2021/03/01 03:35:26;;;;;;;21.48;12.90;;;;;;;;;;6301283;28;20689;-76
2021/03/01 03:38:30;;;;;;;17.13;11.68;;;;;;;;;;6310162;28;20052;-75
2021/03/01 03:41:32;;;;;;;20.02;12.00;;;;;;;;;;6305940;28;20138;-75
2021/03/01 03:44:37;;;;;;;22.92;12.23;;;;;;;;;;6305569;28;20436;-75
2021/03/01 03:47:38;;;;;;;21.48;12.32;;;;;;;;;;6283905;28;20532;-75
2021/03/01 03:50:39;;;;;;;26.58;13.85;;;;;;;;;;6290560;28;20167;-76
2021/03/01 03:53:45;;;;;;;21.27;12.18;;;;;;;;;;6287384;28;20175;-76
2021/03/01 03:56:50;;;;;;;19.52;12.38;;;;;;;;;;6289239;28;20444;-78
2021/03/01 03:59:53;;;;;;;23.10;12.27;;;;;;;;;;6295956;28;20044;-75
2021/03/01 04:02:57;;;;;;;22.38;12.63;;;;;;;;;;6289909;28;20426;-79
2021/03/01 04:05:59;;;;;;;21.92;12.93;;;;;;;;;;6238706;28;20046;-75
2021/03/01 04:09:04;;;;;;;17.92;11.75;;;;;;;;;;6240092;28;20066;-75
2021/03/01 04:12:06;;;;;;;22.35;12.90;;;;;;;;;;6242414;28;20064;-78
2021/03/01 04:15:08;;;;;;;20.50;12.63;;;;;;;;;;6230202;28;20071;-75
2021/03/01 04:18:10;;;;;;;23.17;12.63;;;;;;;;;;6258007;28;20171;-75
2021/03/01 04:21:12;;;;;;;22.52;12.55;;;;;;;;;;6246451;28;20115;-79
2021/03/01 04:24:16;;;;;;;28.58;13.70;;;;;;;;;;6245633;28;20057;-76
2021/03/01 04:27:17;;;;;;;23.20;13.00;;;;;;;;;;6245831;28;20056;-81
2021/03/01 04:30:19;;;;;;;18.52;11.35;;;;;;;;;;6244020;28;20480;-77
2021/03/01 04:33:21;;;;;;;21.23;13.23;;;;;;;;;;6247553;28;20389;-76
2021/03/01 04:36:23;;;;;;;19.75;12.15;;;;;;;;;;6250992;28;20129;-75
2021/03/01 04:39:25;;;;;;;18.52;11.68;;;;;;;;;;6251658;28;20069;-75
2021/03/01 04:42:27;;;;;;;20.45;11.95;;;;;;;;;;6252265;28;20555;-75
2021/03/01 04:45:28;;;;;;;24.13;12.68;;;;;;;;;;6251274;28;20415;-75
2021/03/01 04:48:30;;;;;;;22.50;12.85;;;;;;;;;;6246335;28;20042;-76
2021/03/01 04:51:31;;;;;;;23.17;12.00;;;;;;;;;;6251025;28;20115;-75
2021/03/01 04:54:33;;;;;;;20.60;12.27;;;;;;;;;;6249926;28;20053;-75
2021/03/01 04:57:35;;;;;;;20.40;12.50;;;;;;;;;;6250539;28;20400;-76
2021/03/01 05:00:36;;;;;;;19.33;11.93;;;;;;;;;;6246424;28;20141;-76
2021/03/01 05:03:38;;;;;;;16.75;11.75;;;;;;;;;;6251481;28;20210;-77
2021/03/01 05:06:39;;;;;;;21.55;11.50;;;;;;;;;;6291510;28;20045;-76
2021/03/01 05:09:42;;;;;;;16.58;11.00;;;;;;;;;;6292275;28;20441;-75
2021/03/01 05:12:43;;;;;;;20.52;12.18;;;;;;;;;;6295849;28;20127;-78
2021/03/01 05:15:44;;;;;;;26.67;12.88;;;;;;;;;;6292993;28;20040;-76
2021/03/01 05:18:45;;;;;;;20.88;12.25;;;;;;;;;;6294450;28;20337;-75
2021/03/01 05:21:46;;;;;;;21.33;12.38;;;;;;;;;;6295102;28;20044;-76
2021/03/01 05:24:48;;;;;;;24.60;13.40;;;;;;;;;;6291284;28;20087;-75
2021/03/01 05:27:49;;;;;;;22.00;13.40;;;;;;;;;;6293339;28;20131;-75
2021/03/01 05:30:50;;;;;;;23.20;13.55;;;;;;;;;;6291065;28;20140;-75
2021/03/01 05:33:51;;;;;;;24.25;13.50;;;;;;;;;;6294082;28;20056;-75
2021/03/01 05:36:53;;;;;;;19.30;13.13;;;;;;;;;;6290729;28;20151;-75
2021/03/01 05:39:55;;;;;;;22.35;13.25;;;;;;;;;;6294484;28;20258;-75
2021/03/01 05:42:57;;;;;;;25.67;13.10;;;;;;;;;;6291965;28;20072;-75
2021/03/01 05:45:59;;;;;;;23.58;13.98;;;;;;;;;;6294028;28;20050;-75
2021/03/01 05:49:00;;;;;;;23.90;14.15;;;;;;;;;;6292778;28;20191;-75
2021/03/01 05:52:01;;;;;;;19.77;13.10;;;;;;;;;;6291923;28;20040;-75
2021/03/01 05:55:05;;;;;;;23.45;13.77;;;;;;;;;;6291858;28;20131;-75
2021/03/01 05:58:08;;;;;;;27.73;13.90;;;;;;;;;;6292327;28;20889;-75
2021/03/01 06:01:09;;;;;;;27.13;15.13;;;;;;;;;;6289823;28;20127;-75
2021/03/01 06:04:11;;;;;;;25.35;13.98;;;;;;;;;;6291233;28;20167;-75
2021/03/01 06:07:12;;;;;;;23.52;14.55;;;;;;;;;;6293109;28;20051;-76
2021/03/01 06:10:14;;;;;;;28.65;14.48;;;;;;;;;;6295448;28;20102;-78
2021/03/01 06:13:16;;;;;;;24.70;14.45;;;;;;;;;;6294447;28;20143;-76
2021/03/01 06:16:17;;;;;;;27.50;15.40;;;;;;;;;;6296981;28;20048;-75
2021/03/01 06:19:50;;;;;;;23.40;14.95;;;;;;;;;;6293006;28;20133;-77
2021/03/01 06:22:51;;;;;;;25.73;14.27;;;;;;;;;;6284486;28;20049;-77
2021/03/01 06:25:53;;;;;;;28.30;15.68;;;;;;;;;;6292720;28;20131;-74
2021/03/01 06:28:56;;;;;;;26.27;15.05;;;;;;;;;;6295561;28;20135;-72
2021/03/01 06:31:57;;;;;;;27.55;14.70;;;;;;;;;;6295730;28;20066;-73
2021/03/01 06:34:58;;;;;;;25.73;14.90;;;;;;;;;;6293823;28;20045;-76
2021/03/01 06:38:19;;;;;;;26.70;14.27;;;;;;;;;;6297065;28;20062;-73
2021/03/01 06:41:21;;;;;;;26.23;14.75;;;;;;;;;;6294278;28;20403;-73
2021/03/01 06:44:23;;;;;;;31.15;15.35;;;;;;;;;;6291602;28;20072;-73
2021/03/01 06:47:46;;;;;;;25.50;14.52;;;;;;;;;;6293608;28;20040;-74
2021/03/01 06:50:54;;;;;;;27.17;15.13;;;;;;;;;;6292947;28;20707;-74
2021/03/01 06:53:59;;;;;;;26.55;15.50;;;;;;;;;;6290898;28;20048;-77
2021/03/01 06:57:01;;;;;;;26.33;14.25;;;;;;;;;;6286543;28;20506;-75
2021/03/01 07:00:03;;;;;;;24.33;15.20;;;;;;;;;;6292771;28;20045;-75
2021/03/01 07:03:04;;;;;;;23.48;13.95;;;;;;;;;;6284976;28;20631;-76
2021/03/01 07:06:07;;;;;;;23.35;14.45;;;;;;;;;;6288446;28;20060;-75
2021/03/01 07:09:13;;;;;;;28.63;13.93;;;;;;;;;;6286152;28;20138;-75
2021/03/01 07:12:15;;;;;;;26.95;15.48;;;;;;;;;;6290019;28;20060;-78
2021/03/01 07:15:16;;;;;;;25.73;14.32;;;;;;;;;;6277990;28;20065;-76
2021/03/01 07:18:17;;;;;;;31.40;15.93;;;;;;;;;;6293852;28;20041;-75
2021/03/01 07:21:19;;;;;;;32.30;15.85;;;;;;;;;;6288346;28;20051;-76
2021/03/01 07:24:21;;;;;;;29.30;15.55;;;;;;;;;;6290950;28;20049;-76
2021/03/01 07:27:26;;;;;;;23.50;14.38;;;;;;;;;;6288614;28;20527;-76
2021/03/01 07:30:29;;;;;;;29.08;14.80;;;;;;;;;;6287284;28;20048;-77
2021/03/01 07:33:30;;;;;;;26.73;14.32;;;;;;;;;;6297250;28;20084;-76
2021/03/01 07:36:32;;;;;;;30.77;15.93;;;;;;;;;;6294004;28;20075;-76
2021/03/01 07:39:35;;;;;;;26.23;15.10;;;;;;;;;;6284649;28;20124;-77
2021/03/01 07:42:38;;;;;;;31.08;16.20;;;;;;;;;;6290712;28;20142;-76
2021/03/01 07:45:40;;;;;;;31.13;16.70;;;;;;;;;;6292523;28;20041;-77
2021/03/01 07:48:43;;;;;;;28.35;16.30;;;;;;;;;;6295227;28;20072;-79
2021/03/01 07:51:46;;;;;;;29.48;16.02;;;;;;;;;;6291492;28;20137;-77
2021/03/01 07:54:51;;;;;;;24.83;15.85;;;;;;;;;;6292947;28;20059;-78
2021/03/01 07:58:04;;;;;;;25.42;14.55;;;;;;;;;;6302842;28;20105;-78
2021/03/01 08:01:13;;;;;;;28.60;15.70;;;;;;;;;;6292125;28;20140;-83
2021/03/01 08:04:33;;;;;;;28.17;17.27;;;;;;;;;;6295082;28;20149;-79
2021/03/01 08:07:38;;;;;;;29.45;16.67;;;;;;;;;;6297680;28;20044;-77
2021/03/01 08:10:43;;;;;;;27.65;17.00;;;;;;;;;;6299661;28;20106;-78
2021/03/01 08:13:45;;;;;;;26.40;16.77;;;;;;;;;;6303227;28;20048;-77
2021/03/01 08:16:46;;;;;;;36.63;17.45;;;;;;;;;;6300519;28;20128;-78
2021/03/01 08:19:47;;;;;;;30.80;18.42;;;;;;;;;;6300206;28;20044;-77
2021/03/01 08:23:18;;;;;;;29.80;17.77;;;;;;;;;;6302150;28;20104;-77
2021/03/01 08:26:28;;;;;;;32.85;18.50;;;;;;;;;;6297704;28;20052;-78
2021/03/01 08:29:30;;;;;;;33.30;18.33;;;;;;;;;;6294542;28;20163;-78
2021/03/01 08:32:31;;;;;;;37.38;18.92;;;;;;;;;;6296121;28;20131;-78
2021/03/01 08:35:33;;;;;;;34.20;19.23;;;;;;;;;;6295357;28;20175;-78
2021/03/01 08:38:47;;;;;;;29.33;18.75;;;;;;;;;;6295321;28;20072;-79
2021/03/01 08:41:48;;;;;;;31.60;18.48;;;;;;;;;;6293289;28;20123;-78
2021/03/01 08:44:53;;;;;;;27.95;18.17;;;;;;;;;;6296043;28;20143;-79
2021/03/01 08:47:56;;;;;;;28.10;17.73;;;;;;;;;;6283740;28;20087;-77
2021/03/01 08:50:57;;;;;;;32.00;17.33;;;;;;;;;;6297032;28;20084;-81
2021/03/01 08:53:58;;;;;;;30.23;17.52;;;;;;;;;;6295321;28;20732;-76
2021/03/01 08:57:06;;;;;;;31.05;17.48;;;;;;;;;;6296436;28;20493;-77
2021/03/01 09:00:10;;;;;;;28.08;16.65;;;;;;;;;;6297874;28;20128;-76
2021/03/01 09:03:12;;;;;;;30.67;17.90;;;;;;;;;;6299237;28;20537;-76
2021/03/01 09:06:14;;;;;;;27.30;17.42;;;;;;;;;;6298270;28;20064;-77
2021/03/01 09:09:15;;;;;;;29.77;16.98;;;;;;;;;;6298958;28;20124;-80
2021/03/01 09:12:18;;;;;;;24.50;17.08;;;;;;;;;;6297454;28;20094;-77
2021/03/01 09:15:21;;;;;;;30.63;16.33;;;;;;;;;;6292510;28;20118;-80
2021/03/01 09:18:27;;;;;;;27.23;15.80;;;;;;;;;;6293669;28;20083;-78
2021/03/01 09:21:29;;;;;;;26.42;16.35;;;;;;;;;;6291412;28;20049;-77
2021/03/01 09:24:30;;;;;;;27.00;16.15;;;;;;;;;;6292339;28;20049;-77
2021/03/01 09:27:32;;;;;;;22.52;15.70;;;;;;;;;;6293734;28;20156;-79
2021/03/01 09:30:34;;;;;;;29.40;16.35;;;;;;;;;;6289975;28;20051;-76
2021/03/01 09:33:36;;;;;;;23.85;16.27;;;;;;;;;;6289513;28;20766;-75
2021/03/01 09:36:37;;;;;;;21.13;14.55;;;;;;;;;;6289488;28;20101;-78
2021/03/01 09:39:43;;;;;;;25.85;16.02;;;;;;;;;;6287179;28;20123;-77
2021/03/01 09:42:47;;;;;;;21.67;13.45;;;;;;;;;;6289209;28;20071;-75
2021/03/01 09:45:50;;;;;;;18.45;12.40;;;;;;;;;;6289538;28;20039;-75
2021/03/01 09:48:54;;;;;;;20.63;12.27;;;;;;;;;;6295435;28;20558;-74
2021/03/01 09:51:55;;;;;;;19.67;12.27;;;;;;;;;;6290575;28;20095;-74
2021/03/01 09:54:56;;;;;;;16.77;12.05;;;;;;;;;;6289277;28;20089;-75
2021/03/01 09:57:57;;;;;;;23.60;13.45;;;;;;;;;;6293568;28;20490;-75
2021/03/01 10:01:07;;;;;;;16.83;12.23;;;;;;;;;;6294572;28;20432;-75
2021/03/01 10:04:08;;;;;;;18.67;12.90;;;;;;;;;;6291501;28;20068;-78
2021/03/01 10:07:16;;;;;;;22.63;14.02;;;;;;;;;;6293545;28;20059;-75
2021/03/01 10:10:18;;;;;;;20.52;13.73;;;;;;;;;;6289031;28;20144;-80
2021/03/01 10:13:25;;;;;;;19.27;12.98;;;;;;;;;;6289484;28;20131;-78
2021/03/01 10:16:33;;;;;;;26.20;14.75;;;;;;;;;;6287858;28;20505;-75
2021/03/01 10:19:38;;;;;;;18.25;13.77;;;;;;;;;;6289844;28;20086;-76
2021/03/01 10:22:58;;;;;;;19.65;13.55;;;;;;;;;;6287561;28;20103;-77
2021/03/01 10:26:15;;;;;;;17.05;12.75;;;;;;;;;;6288163;28;20117;-77
2021/03/01 10:29:16;;;;;;;21.33;14.27;;;;;;;;;;6289278;28;20052;-79
2021/03/01 10:32:20;;;;;;;20.88;14.68;;;;;;;;;;6292987;28;20558;-79
2021/03/01 10:35:22;;;;;;;22.17;15.48;;;;;;;;;;6289804;28;20575;-77
2021/03/01 10:38:23;;;;;;;24.23;15.25;;;;;;;;;;6291599;28;20045;-75
2021/03/01 10:41:25;;;;;;;18.52;13.80;;;;;;;;;;6288220;28;20044;-75
2021/03/01 10:44:29;;;;;;;29.77;14.07;;;;;;;;;;6286234;28;20156;-76
2021/03/01 10:47:32;;;;;;;18.27;14.20;;;;;;;;;;6290587;28;20048;-76
2021/03/01 10:50:33;;;;;;;23.20;14.75;;;;;;;;;;6294031;28;20037;-76
2021/03/01 10:53:34;;;;;;;19.98;14.45;;;;;;;;;;6291250;28;20114;-80
2021/03/01 10:56:35;;;;;;;21.50;13.90;;;;;;;;;;6285707;28;20468;-76
2021/03/01 10:59:37;;;;;;;21.65;14.00;;;;;;;;;;6286830;28;20048;-76
2021/03/01 11:02:38;;;;;;;18.75;13.43;;;;;;;;;;6285004;28;20755;-77
2021/03/01 11:05:43;;;;;;;21.90;13.73;;;;;;;;;;6285527;28;20127;-75
2021/03/01 11:08:44;;;;;;;20.33;14.40;;;;;;;;;;6287501;28;20071;-75
2021/03/01 11:11:47;;;;;;;20.88;14.40;;;;;;;;;;6286570;28;20053;-75
2021/03/01 11:14:48;;;;;;;17.13;14.02;;;;;;;;;;6289358;28;20048;-76
2021/03/01 11:17:50;;;;;;;20.67;14.68;;;;;;;;;;6286576;28;20041;-75
2021/03/01 11:20:51;;;;;;;21.17;14.88;;;;;;;;;;6286034;28;20068;-73
2021/03/01 11:23:52;;;;;;;20.40;14.23;;;;;;;;;;6281462;28;20142;-73
2021/03/01 11:26:53;;;;;;;19.23;14.45;;;;;;;;;;6285995;28;20084;-74
2021/03/01 11:29:54;;;;;;;18.40;15.00;;;;;;;;;;6284233;28;20040;-77
2021/03/01 11:32:56;;;;;;;18.50;14.45;;;;;;;;;;6281834;28;20070;-75
2021/03/01 11:35:57;;;;;;;20.15;13.77;;;;;;;;;;6285236;28;20091;-74
2021/03/01 11:38:58;;;;;;;17.45;13.82;;;;;;;;;;6287949;28;20052;-75
2021/03/01 11:41:59;;;;;;;20.65;13.48;;;;;;;;;;6289225;28;20475;-75
2021/03/01 11:45:01;;;;;;;18.05;13.68;;;;;;;;;;6286323;28;20123;-74
2021/03/01 11:48:03;;;;;;;21.45;14.05;;;;;;;;;;6293339;28;20086;-80
2021/03/01 11:51:05;;;;;;;19.88;14.13;;;;;;;;;;6288026;28;20044;-75
2021/03/01 11:54:06;;;;;;;20.85;14.38;;;;;;;;;;6286053;28;20050;-75
2021/03/01 11:57:07;;;;;;;19.63;14.15;;;;;;;;;;6287478;28;20127;-74
2021/03/01 12:00:09;;;;;;;21.75;13.77;;;;;;;;;;6286194;28;20047;-77
2021/03/01 12:03:11;;;;;;;21.20;13.90;;;;;;;;;;6284104;28;20528;-77
2021/03/01 12:06:13;;;;;;;23.63;13.32;;;;;;;;;;6288140;28;20040;-76
2021/03/01 12:09:14;;;;;;;26.92;13.70;;;;;;;;;;6293225;28;20135;-76
2021/03/01 12:12:15;;;;;;;18.65;13.55;;;;;;;;;;6289546;28;20187;-75
2021/03/01 12:15:17;;;;;;;19.05;14.57;;;;;;;;;;6295137;28;20044;-76
2021/03/01 12:18:19;;;;;;;22.35;14.32;;;;;;;;;;6293056;28;20072;-77
2021/03/01 12:21:20;;;;;;;17.08;13.68;;;;;;;;;;6287561;28;20059;-78
2021/03/01 12:24:21;;;;;;;19.63;13.52;;;;;;;;;;6286326;28;20076;-76
2021/03/01 12:27:22;;;;;;;17.83;13.60;;;;;;;;;;6286274;28;20140;-76
2021/03/01 12:30:23;;;;;;;18.73;14.07;;;;;;;;;;6287191;28;20041;-80
2021/03/01 12:33:25;;;;;;;21.60;14.07;;;;;;;;;;6288785;28;20631;-78
2021/03/01 12:36:26;;;;;;;19.77;14.52;;;;;;;;;;6292573;28;20060;-75
2021/03/01 12:39:28;;;;;;;19.30;13.93;;;;;;;;;;6285245;28;20547;-74
2021/03/01 12:42:29;;;;;;;18.55;15.10;;;;;;;;;;6286302;28;20127;-77
2021/03/01 12:45:30;;;;;;;18.83;14.43;;;;;;;;;;6295342;28;20387;-78
2021/03/01 12:48:32;;;;;;;23.27;14.55;;;;;;;;;;6296927;28;20079;-80
2021/03/01 12:51:34;;;;;;;21.17;15.27;;;;;;;;;;6297638;28;20064;-78
2021/03/01 12:54:35;;;;;;;23.42;14.40;;;;;;;;;;6292268;28;20057;-78
2021/03/01 12:57:36;;;;;;;22.15;14.60;;;;;;;;;;6296599;28;20056;-79
2021/03/01 13:00:37;;;;;;;18.50;14.13;;;;;;;;;;6300433;28;20083;-80
2021/03/01 13:03:39;;;;;;;19.10;14.43;;;;;;;;;;6293256;28;20502;-72
2021/03/01 13:06:40;;;;;;;21.27;13.82;;;;;;;;;;6301466;28;20059;-78
2021/03/01 13:09:41;;;;;;;20.35;13.70;;;;;;;;;;6294073;28;20090;-76
2021/03/01 13:12:42;;;;;;;22.20;14.43;;;;;;;;;;6294229;28;20055;-77
2021/03/01 13:15:44;;;;;;;18.52;13.85;;;;;;;;;;6288943;28;20440;-77
2021/03/01 13:18:45;;;;;;;17.98;14.75;;;;;;;;;;6292630;28;20052;-80
2021/03/01 13:21:47;;;;;;;21.85;13.85;;;;;;;;;;6277637;28;20048;-78
2021/03/01 13:24:48;;;;;;;19.05;14.82;;;;;;;;;;6288997;28;20127;-78
2021/03/01 13:27:49;;;;;;;23.33;15.23;;;;;;;;;;6287818;28;20375;-78
2021/03/01 13:30:50;;;;;;;21.23;14.85;;;;;;;;;;6292630;28;20486;-79
2021/03/01 13:33:52;;;;;;;21.10;15.38;;;;;;;;;;6292383;28;20048;-77
2021/03/01 13:36:53;;;;;;;20.40;14.65;;;;;;;;;;6293771;28;20040;-77
2021/03/01 13:39:54;;;;;;;24.55;14.73;;;;;;;;;;6292721;28;20057;-77
2021/03/01 13:42:55;;;;;;;17.08;13.93;;;;;;;;;;6296794;28;20079;-77
2021/03/01 13:45:56;;;;;;;17.45;13.73;;;;;;;;;;6297690;28;20131;-77
2021/03/01 13:48:58;;;;;;;21.92;14.35;;;;;;;;;;6295197;28;20139;-79
2021/03/01 13:51:59;;;;;;;19.42;14.55;;;;;;;;;;6293512;28;20546;-78
2021/03/01 13:55:00;;;;;;;17.50;13.18;;;;;;;;;;6291357;28;20055;-77
2021/03/01 13:58:01;;;;;;;20.52;14.07;;;;;;;;;;6292010;28;20066;-79
2021/03/01 14:01:02;;;;;;;15.95;12.68;;;;;;;;;;6285055;28;20767;-79
2021/03/01 14:04:05;;;;;;;21.65;14.18;;;;;;;;;;6289124;28;20136;-78
2021/03/01 14:07:07;;;;;;;18.42;13.45;;;;;;;;;;6289777;28;20052;-78
2021/03/01 14:10:09;;;;;;;20.85;13.85;;;;;;;;;;6290795;28;20116;-77
2021/03/01 14:13:10;;;;;;;20.48;14.02;;;;;;;;;;6286984;28;20129;-77
2021/03/01 14:16:11;;;;;;;18.38;13.80;;;;;;;;;;6289729;28;20055;-81
2021/03/01 14:19:13;;;;;;;20.90;13.27;;;;;;;;;;6287285;28;20071;-78
2021/03/01 14:22:14;;;;;;;18.77;13.85;;;;;;;;;;6289410;28;20136;-77
2021/03/01 14:25:15;;;;;;;19.33;13.70;;;;;;;;;;6289624;28;20132;-76
2021/03/01 14:28:16;;;;;;;19.98;13.13;;;;;;;;;;6288888;28;20131;-79
2021/03/01 14:31:17;;;;;;;18.20;13.82;;;;;;;;;;6294286;28;20543;-77
2021/03/01 14:34:19;;;;;;;21.25;13.40;;;;;;;;;;6289828;28;20214;-80
2021/03/01 14:37:20;;;;;;;23.15;13.70;;;;;;;;;;6292234;28;20555;-79
2021/03/01 14:40:22;;;;;;;21.35;13.18;;;;;;;;;;6286335;28;20118;-81
2021/03/01 14:43:23;;;;;;;20.50;12.63;;;;;;;;;;6290423;28;20190;-78
2021/03/01 14:46:24;;;;;;;17.05;12.48;;;;;;;;;;6290642;28;20139;-82
2021/03/01 14:49:26;;;;;;;17.85;12.10;;;;;;;;;;6290028;28;20368;-77
2021/03/01 14:52:27;;;;;;;19.73;12.35;;;;;;;;;;6291951;28;20427;-82
2021/03/01 14:55:28;;;;;;;17.10;11.63;;;;;;;;;;6287826;28;20064;-80
2021/03/01 14:58:29;;;;;;;17.60;12.43;;;;;;;;;;6285827;28;20129;-77
2021/03/01 15:01:30;;;;;;;17.02;10.75;;;;;;;;;;6293630;28;20097;-80
2021/03/01 15:04:32;;;;;;;18.33;11.63;;;;;;;;;;6293731;28;20079;-79
2021/03/01 15:07:33;;;;;;;17.23;12.07;;;;;;;;;;6286635;28;20669;-76
2021/03/01 15:10:34;;;;;;;15.70;10.95;;;;;;;;;;6287208;28;20126;-81
2021/03/01 15:13:37;;;;;;;15.52;11.18;;;;;;;;;;6295699;28;20064;-79
2021/03/01 15:16:38;;;;;;;18.57;11.00;;;;;;;;;;6288331;28;20505;-82
2021/03/01 15:19:40;;;;;;;17.60;11.52;;;;;;;;;;6288392;28;20079;-83
2021/03/01 15:22:41;;;;;;;19.52;12.27;;;;;;;;;;6295079;28;20145;-82
2021/03/01 15:25:42;;;;;;;17.42;11.38;;;;;;;;;;6294669;28;20071;-78
2021/03/01 15:28:43;;;;;;;17.05;11.32;;;;;;;;;;5930023;28;10000465;-79
2021/03/01 15:31:45;;;;;;;19.88;12.45;;;;;;;;;;6281326;28;20086;-78
2021/03/01 15:34:47;;;;;;;16.73;12.02;;;;;;;;;;6290793;28;20241;-77
2021/03/01 15:37:48;;;;;;;15.40;11.83;;;;;;;;;;6291327;28;20104;-78
2021/03/01 15:40:51;;;;;;;23.00;11.95;;;;;;;;;;6289878;28;20131;-78
2021/03/01 15:43:52;;;;;;;21.20;11.27;;;;;;;;;;6286921;28;20509;-78
2021/03/01 15:46:54;;;;;;;17.10;11.20;;;;;;;;;;6286935;28;20078;-81
2021/03/01 15:49:56;;;;;;;17.75;11.70;;;;;;;;;;6285038;28;20094;-77
2021/03/01 15:52:57;;;;;;;15.70;11.25;;;;;;;;;;6285111;28;20053;-75
2021/03/01 15:55:58;;;;;;;17.38;11.98;;;;;;;;;;6288519;28;20056;-76
2021/03/01 15:58:59;;;;;;;27.75;11.65;;;;;;;;;;6287589;28;20072;-78
2021/03/01 16:02:00;;;;;;;18.35;11.20;;;;;;;;;;6290468;28;20040;-76
2021/03/01 16:05:03;;;;;;;15.38;10.20;;;;;;;;;;6283949;28;20052;-75
2021/03/01 16:08:05;;;;;;;22.42;10.98;;;;;;;;;;6283302;28;20143;-76
2021/03/01 16:11:06;;;;;;;16.60;9.70;;;;;;;;;;6285101;28;20104;-78
2021/03/01 16:14:08;;;;;;;15.27;10.13;;;;;;;;;;6283901;28;20048;-78
2021/03/01 16:17:09;;;;;;;17.50;11.27;;;;;;;;;;6290292;28;20115;-75
2021/03/01 16:20:12;;;;;;;18.27;10.65;;;;;;;;;;6287382;28;20155;-76
2021/03/01 16:23:13;;;;;;;17.52;10.77;;;;;;;;;;6291033;28;20102;-78
2021/03/01 16:26:16;;;;;;;17.65;11.60;;;;;;;;;;6287035;28;20062;-77
2021/03/01 16:29:17;;;;;;;18.50;11.50;;;;;;;;;;6289911;28;20204;-76
2021/03/01 16:32:18;;;;;;;20.17;11.05;;;;;;;;;;6293730;28;20087;-75
2021/03/01 16:35:20;;;;;;;18.50;10.25;;;;;;;;;;6282736;28;20451;-75
2021/03/01 16:38:21;;;;;;;19.42;9.98;;;;;;;;;;6290462;28;20083;-75
2021/03/01 16:41:23;;;;;;;17.75;9.32;;;;;;;;;;6290293;28;20177;-77
2021/03/01 16:44:27;;;;;;;16.00;8.25;;;;;;;;;;6293733;28;20040;-76
2021/03/01 16:47:29;;;;;;;14.65;9.75;;;;;;;;;;6297967;28;20128;-76
2021/03/01 16:50:32;;;;;;;18.55;9.48;;;;;;;;;;6292312;28;20139;-78
2021/03/01 16:53:36;;;;;;;16.20;9.05;;;;;;;;;;6292362;28;20052;-79
2021/03/01 16:56:38;;;;;;;17.25;8.80;;;;;;;;;;6289146;28;20084;-81
2021/03/01 16:59:39;;;;;;;13.82;8.23;;;;;;;;;;6288841;28;20040;-76
2021/03/01 17:02:42;;;;;;;12.18;7.50;;;;;;;;;;6289739;28;22108;-76
2021/03/01 17:05:44;;;;;;;15.32;7.82;;;;;;;;;;6292111;28;20045;-76
2021/03/01 17:08:48;;;;;;;16.42;7.68;;;;;;;;;;6291882;28;20056;-77
2021/03/01 17:11:52;;;;;;;16.55;7.80;;;;;;;;;;6290670;28;20051;-77
2021/03/01 17:14:57;;;;;;;15.15;8.15;;;;;;;;;;6292275;28;20475;-77
2021/03/01 17:18:00;;;;;;;13.70;7.97;;;;;;;;;;6296909;28;20036;-75
2021/03/01 17:21:05;;;;;;;11.90;7.07;;;;;;;;;;6290686;28;20048;-76
2021/03/01 17:24:13;;;;;;;11.63;7.03;;;;;;;;;;6288647;28;20047;-78
2021/03/01 17:27:15;;;;;;;16.70;7.18;;;;;;;;;;6290802;28;20064;-77
2021/03/01 17:30:17;;;;;;;11.85;7.07;;;;;;;;;;6289310;28;20130;-76
2021/03/01 17:33:20;;;;;;;13.98;7.53;;;;;;;;;;6290331;28;20076;-75
2021/03/01 17:36:23;;;;;;;13.70;7.75;;;;;;;;;;6289963;28;20048;-76
2021/03/01 17:39:24;;;;;;;19.10;8.07;;;;;;;;;;6292066;28;20562;-74
2021/03/01 17:42:26;;;;;;;15.80;8.65;;;;;;;;;;6290658;28;20709;-78
2021/03/01 17:45:28;;;;;;;17.27;8.48;;;;;;;;;;6289507;28;20054;-75